LIRNLYTV

Guest
Details From LIRN - Naples Capodichino
To LYTV - Tivat
Flight Number -
Tags generated
Created
Modified
Stats Distance 231 nm / 428 km
Max Altitude 29,400 ft / 8,961 m
Waypoints 4
Social Downloads 1
Likes 0
Share VATSIM

Download

Looking for another format? Having issues loading an existing format? Contact us
Advertisement - Login to hide

Notes

Basic altitude profile: - Ascent Rate: 2500ft/min - Ascent Speed: 250kts - Cruise Altitude: 35000ft - Cruise Speed: 420kts - Descent Rate: 1500ft/min - Descent Speed: 250kts Options: - Use NATs: yes - Use PACOTS: yes - Use low airways: yes - Use high airways: yes

Route

LIRN TOPNO UP748 BANAV LYTV

ID Type Via Altitude (ft/m) Position (lat/lon) Dist (leg/tot) Name
O LIRN APT - 0 / 0 40.88603 / 14.29078 - / 0 nm Naples Capodichino
TOPNO FIX - 29,400 / 8,961 40.95167 / 16.10778 82 / 82 nm
BANAV FIX UP748 (AWY-HI) 19,500 / 5,944 41.72861 / 17.01111 61 / 144 nm
O LYTV APT - 0 / 0 42.40466 / 18.72329 86 / 230 nm Tivat

Altitude Profile

Advertisement - Login to hide

Weather


0- 5 10 15 20 25 30 35+ Temperature / °C

Clouds and Precipitation
Forecast for 2018-11-17 00:00 UTC. Updated 3 hours ago

Ground ~20,000 ft ~40,000 ft Winds

LIRN

Details ICAO LIRN (NAP)
Name Naples Capodichino
Region Italy
Timezone Europe/Rome (UTC+1.0)
Stats Elevation 293 ft / 89 m (AMSL)
Location 40.886000° 14.290800°
Runways 1
Magnetic Variation 3.402° E

METAR

LIRN 170020Z 05006KT 360V090 CAVOK 10/01 Q1019 NOSIG

Decode

TAF

TAF LIRN 162300Z 1700/1724 04015KT 9999 FEW030 TEMPO 1710/1716 04016G26KT

Decode

Departure Runways

ID Width Length Bearing (true/mag) Surface Threshold Overrun Markings Lighting
06 148 ft / 45 m 8,608 ft / 2,624 m 58.05° / 54.65° ASPHALT 1,299 ft / 396 m 0 ft / 0 m PREC-APP CENTERLINE EDGE THRESHOLD MALSF
24 148 ft / 45 m 8,608 ft / 2,624 m 238.07° / 234.67° ASPHALT 604 ft / 184 m 0 ft / 0 m PREC-APP CENTERLINE EDGE THRESHOLD MALSF

LYTV

Details ICAO LYTV (TIV)
Name Tivat
Region Serbia and Montenegro
Timezone Europe/Podgorica (UTC+1.0)
Stats Elevation 20 ft / 6 m (AMSL)
Location 42.404700° 18.723300°
Runways 1
Magnetic Variation 4.259° E

METAR

LYTV 170030Z 03010G20KT CAVOK 13/M04 Q1020

Decode

TAF

TAF LYTV 162300Z 1700/1724 02015G25KT 9999 FEW050 BKN080 TX17/1713Z TN09/1706Z TEMPO 1700/1706 02018G35KT

Decode

Destination Runways

ID Width Length Bearing (true/mag) Surface Threshold Overrun Markings Lighting
14 148 ft / 45 m 8,210 ft / 2,503 m 138.97° / 134.72° ASPHALT 0 ft / 0 m 0 ft / 0 m APP CENTERLINE EDGE THRESHOLD MALSF
32 148 ft / 45 m 8,210 ft / 2,503 m 318.99° / 314.73° ASPHALT 0 ft / 0 m 0 ft / 0 m APP CENTERLINE EDGE THRESHOLD MALSF

Approach Navaids

Runway Type Ident Frequency Range Bearing (true/mag) Slope Elevation
32 DME TIV 111.30 MHz 18 nm / 33 km - - 49 ft / 15 m (AMSL)
32 LOC-LOC TIV 111.30 MHz 50 nm / 93 km 339.00° / 334.74 ° - 56 ft / 17 m (AMSL)

Popular Alternatives